Time;durP1;ratioP1;P1;durP2;ratioP2;P2;SDS_P1;SDS_P2;PMS_P1;PMS_P2;Temp;Humidity;BMP_temperature;BMP_pressure;BME280_temperature;BME280_humidity;BME280_pressure;Samples;Min_cycle;Max_cycle;Signal;HPM_P1;HPM_P2
2024/01/11 00:01:51;;;;;;;6.47;2.65;;;;;;;;;;4997755;28;20034;-30
2024/01/11 00:04:17;;;;;;;7.10;2.72;;;;;;;;;;4998040;28;20030;-29
2024/01/11 00:06:44;;;;;;;8.52;2.83;;;;;;;;;;4997932;28;20030;-30
2024/01/11 00:09:10;;;;;;;4.53;2.17;;;;;;;;;;4998005;28;20022;-28
2024/01/11 00:11:36;;;;;;;7.53;2.70;;;;;;;;;;4997665;28;20018;-33
2024/01/11 00:14:02;;;;;;;5.70;2.47;;;;;;;;;;4980396;28;20080;-29
2024/01/11 00:16:29;;;;;;;4.43;2.65;;;;;;;;;;4998250;28;20030;-31
2024/01/11 00:18:55;;;;;;;5.65;2.83;;;;;;;;;;4997525;28;20034;-30
2024/01/11 00:21:21;;;;;;;6.53;2.90;;;;;;;;;;4997712;28;20030;-29
2024/01/11 00:23:47;;;;;;;2.63;2.42;;;;;;;;;;4997382;28;20394;-30
2024/01/11 00:26:13;;;;;;;5.22;2.42;;;;;;;;;;4997611;28;20409;-31
2024/01/11 00:28:39;;;;;;;2.58;2.35;;;;;;;;;;4997579;28;20121;-30
2024/01/11 00:31:06;;;;;;;4.13;3.22;;;;;;;;;;4997543;28;20030;-30
2024/01/11 00:33:32;;;;;;;7.28;3.30;;;;;;;;;;4980009;28;20019;-29
2024/01/11 00:35:58;;;;;;;5.57;2.45;;;;;;;;;;4997620;28;20350;-30
2024/01/11 00:38:25;;;;;;;6.95;2.35;;;;;;;;;;4997182;28;20027;-29
2024/01/11 00:40:51;;;;;;;4.38;2.58;;;;;;;;;;4997155;28;20031;-30
2024/01/11 00:43:17;;;;;;;6.20;3.40;;;;;;;;;;4979836;28;20095;-29
2024/01/11 00:45:44;;;;;;;4.75;3.20;;;;;;;;;;4997219;28;20054;-28
2024/01/11 00:48:10;;;;;;;5.63;2.63;;;;;;;;;;4997505;28;20053;-29
2024/01/11 00:50:36;;;;;;;3.53;2.40;;;;;;;;;;4979814;28;20026;-31
2024/01/11 00:53:03;;;;;;;5.70;2.53;;;;;;;;;;4996232;28;20084;-30
2024/01/11 00:55:29;;;;;;;5.05;2.60;;;;;;;;;;4979742;28;20034;-30
2024/01/11 00:57:55;;;;;;;4.88;2.65;;;;;;;;;;4997086;28;20473;-29
2024/01/11 01:00:21;;;;;;;4.40;2.78;;;;;;;;;;4997301;28;20023;-28
2024/01/11 01:02:47;;;;;;;4.07;2.83;;;;;;;;;;4997201;28;20353;-30
2024/01/11 01:05:13;;;;;;;6.47;3.15;;;;;;;;;;4996381;28;20125;-31
2024/01/11 01:07:40;;;;;;;7.20;2.80;;;;;;;;;;4996882;28;20107;-30
2024/01/11 01:10:07;;;;;;;4.80;2.78;;;;;;;;;;4996843;28;20026;-30
2024/01/11 01:12:33;;;;;;;2.88;2.08;;;;;;;;;;4996523;28;20042;-30
2024/01/11 01:14:59;;;;;;;2.95;2.65;;;;;;;;;;4979394;28;20109;-30
2024/01/11 01:17:25;;;;;;;4.20;3.00;;;;;;;;;;4996465;28;20093;-30
2024/01/11 01:19:51;;;;;;;6.18;2.30;;;;;;;;;;4996679;28;20480;-30
2024/01/11 01:22:17;;;;;;;3.50;2.55;;;;;;;;;;4996721;28;20030;-31
2024/01/11 01:24:44;;;;;;;7.30;2.70;;;;;;;;;;4996335;28;20022;-30
2024/01/11 01:27:10;;;;;;;4.30;2.00;;;;;;;;;;4996707;28;20052;-28
2024/01/11 01:29:36;;;;;;;3.65;2.53;;;;;;;;;;4997042;28;20524;-31
2024/01/11 01:32:02;;;;;;;4.63;2.90;;;;;;;;;;4996031;28;20033;-29
2024/01/11 01:34:28;;;;;;;4.15;2.60;;;;;;;;;;4996152;28;20034;-29
2024/01/11 01:36:55;;;;;;;4.65;3.00;;;;;;;;;;4996122;28;20097;-30
2024/01/11 01:39:21;;;;;;;3.92;2.08;;;;;;;;;;4996304;28;20085;-30
2024/01/11 01:41:47;;;;;;;7.95;2.55;;;;;;;;;;4996279;28;20110;-29
2024/01/11 01:44:13;;;;;;;6.72;2.95;;;;;;;;;;4995855;28;20137;-28
2024/01/11 01:46:40;;;;;;;4.60;2.80;;;;;;;;;;4995852;28;20022;-30
2024/01/11 01:49:06;;;;;;;3.63;2.63;;;;;;;;;;4996380;28;20026;-30
2024/01/11 01:51:33;;;;;;;2.65;2.45;;;;;;;;;;4996391;28;20037;-30
2024/01/11 01:53:59;;;;;;;3.13;2.90;;;;;;;;;;4995690;28;20022;-31
2024/01/11 01:56:26;;;;;;;5.93;2.55;;;;;;;;;;4995751;28;20045;-29
2024/01/11 01:58:52;;;;;;;7.45;2.92;;;;;;;;;;4995722;28;20046;-30
2024/01/11 02:01:19;;;;;;;4.45;2.38;;;;;;;;;;4995664;28;20026;-30
2024/01/11 02:03:46;;;;;;;4.97;3.15;;;;;;;;;;4995594;28;20109;-30
2024/01/11 02:06:14;;;;;;;5.15;2.75;;;;;;;;;;4978272;28;20046;-29
2024/01/11 02:08:42;;;;;;;4.22;2.67;;;;;;;;;;4995534;28;20018;-30
2024/01/11 02:11:08;;;;;;;5.65;3.47;;;;;;;;;;4995841;28;20026;-31
2024/01/11 02:13:34;;;;;;;4.43;2.20;;;;;;;;;;4995489;28;20540;-30
2024/01/11 02:16:01;;;;;;;7.70;5.00;;;;;;;;;;4995367;28;20022;-30
2024/01/11 02:18:27;;;;;;;4.40;3.55;;;;;;;;;;4978338;28;20030;-30
2024/01/11 02:20:53;;;;;;;3.63;2.90;;;;;;;;;;4995399;28;20040;-29
2024/01/11 02:23:21;;;;;;;3.60;2.50;;;;;;;;;;4995245;28;20105;-30
2024/01/11 02:25:47;;;;;;;3.20;2.30;;;;;;;;;;4995870;28;20027;-30
2024/01/11 02:28:13;;;;;;;3.25;2.55;;;;;;;;;;4995792;28;20026;-30
2024/01/11 02:30:39;;;;;;;7.57;3.25;;;;;;;;;;4995268;28;20461;-31
2024/01/11 02:33:05;;;;;;;4.85;2.63;;;;;;;;;;4995309;28;20473;-30
2024/01/11 02:35:32;;;;;;;3.08;2.50;;;;;;;;;;4995203;28;20033;-30
2024/01/11 02:38:00;;;;;;;4.90;2.60;;;;;;;;;;4995198;28;20131;-31
2024/01/11 02:40:26;;;;;;;4.13;2.92;;;;;;;;;;4995164;28;20038;-30
2024/01/11 02:42:52;;;;;;;4.07;2.63;;;;;;;;;;4995337;28;20366;-31
2024/01/11 02:45:19;;;;;;;4.88;3.00;;;;;;;;;;4977906;28;20038;-32
2024/01/11 02:47:45;;;;;;;2.70;2.50;;;;;;;;;;4995155;28;20378;-30
2024/01/11 02:50:14;;;;;;;3.88;3.10;;;;;;;;;;4995067;28;20096;-30
2024/01/11 02:52:40;;;;;;;3.05;2.85;;;;;;;;;;4995166;28;20058;-30
2024/01/11 02:55:06;;;;;;;3.92;2.63;;;;;;;;;;4995311;28;20089;-29
2024/01/11 02:57:32;;;;;;;4.38;2.50;;;;;;;;;;4977963;28;20121;-30
2024/01/11 02:59:59;;;;;;;3.80;2.63;;;;;;;;;;4995289;28;20046;-30
2024/01/11 03:02:25;;;;;;;3.50;3.20;;;;;;;;;;4977986;28;20033;-29
2024/01/11 03:04:51;;;;;;;2.85;2.63;;;;;;;;;;4977675;28;20149;-30
2024/01/11 03:07:17;;;;;;;2.78;2.38;;;;;;;;;;4978543;28;20326;-30
2024/01/11 03:09:44;;;;;;;6.90;2.75;;;;;;;;;;4994936;28;20030;-30
2024/01/11 03:12:10;;;;;;;4.65;2.67;;;;;;;;;;4977682;28;20037;-30
2024/01/11 03:14:36;;;;;;;3.45;3.10;;;;;;;;;;4995414;28;20026;-31
2024/01/11 03:17:02;;;;;;;8.48;3.75;;;;;;;;;;4997881;28;20037;-30
2024/01/11 03:19:28;;;;;;;2.90;2.55;;;;;;;;;;4999213;28;20054;-30
2024/01/11 03:21:54;;;;;;;3.13;2.83;;;;;;;;;;4998778;28;20033;-29
2024/01/11 03:24:20;;;;;;;2.65;2.45;;;;;;;;;;4998577;28;20049;-31
2024/01/11 03:26:48;;;;;;;3.53;2.63;;;;;;;;;;4981332;28;20520;-31
2024/01/11 03:29:14;;;;;;;2.92;2.63;;;;;;;;;;4998693;28;20031;-31
2024/01/11 03:31:42;;;;;;;4.40;2.78;;;;;;;;;;4998713;28;20014;-31
2024/01/11 03:34:09;;;;;;;4.43;2.72;;;;;;;;;;4998353;28;20015;-29
2024/01/11 03:36:35;;;;;;;4.82;2.63;;;;;;;;;;4998632;28;20026;-30
2024/01/11 03:39:01;;;;;;;3.03;2.08;;;;;;;;;;4998529;28;20030;-29
2024/01/11 03:41:27;;;;;;;4.07;3.17;;;;;;;;;;4998257;28;20449;-29
2024/01/11 03:43:53;;;;;;;4.82;3.42;;;;;;;;;;4998159;28;20027;-37
2024/01/11 03:46:20;;;;;;;3.53;2.85;;;;;;;;;;4998092;28;20030;-29
2024/01/11 03:48:46;;;;;;;2.72;2.25;;;;;;;;;;4980989;28;20026;-31
2024/01/11 03:51:12;;;;;;;6.18;2.90;;;;;;;;;;4997997;28;20026;-32
2024/01/11 03:53:38;;;;;;;3.10;2.08;;;;;;;;;;4998009;28;20034;-30
2024/01/11 03:56:05;;;;;;;4.18;2.20;;;;;;;;;;4998014;28;20030;-32
2024/01/11 03:58:31;;;;;;;4.63;2.80;;;;;;;;;;4998209;28;20030;-29
2024/01/11 04:00:57;;;;;;;2.55;2.35;;;;;;;;;;4997916;28;20026;-30
2024/01/11 04:03:23;;;;;;;6.25;3.10;;;;;;;;;;4997929;28;20105;-30
2024/01/11 04:05:49;;;;;;;2.90;2.60;;;;;;;;;;4997564;28;20046;-30
2024/01/11 04:08:15;;;;;;;3.17;2.72;;;;;;;;;;4998250;28;20473;-31
2024/01/11 04:10:41;;;;;;;2.67;2.45;;;;;;;;;;4997962;28;20084;-31
2024/01/11 04:13:08;;;;;;;7.55;3.15;;;;;;;;;;4997594;28;20496;-32
2024/01/11 04:15:34;;;;;;;3.08;2.80;;;;;;;;;;4997899;28;20366;-30
2024/01/11 04:18:00;;;;;;;3.85;3.05;;;;;;;;;;4997580;28;20041;-30
2024/01/11 04:20:26;;;;;;;2.70;2.47;;;;;;;;;;4997870;28;20353;-30
2024/01/11 04:22:52;;;;;;;3.55;3.05;;;;;;;;;;4980268;28;20097;-30
2024/01/11 04:25:19;;;;;;;3.03;2.63;;;;;;;;;;4997377;28;20046;-31
2024/01/11 04:27:45;;;;;;;3.42;2.45;;;;;;;;;;4996214;28;20030;-30
2024/01/11 04:30:11;;;;;;;2.95;2.75;;;;;;;;;;4997560;28;20022;-30
2024/01/11 04:32:37;;;;;;;3.67;2.20;;;;;;;;;;4980048;28;20505;-30
2024/01/11 04:35:03;;;;;;;3.55;2.78;;;;;;;;;;4997570;28;20029;-31
2024/01/11 04:37:30;;;;;;;2.38;2.15;;;;;;;;;;4997212;28;20030;-29
2024/01/11 04:39:59;;;;;;;3.55;3.25;;;;;;;;;;4997119;28;20023;-31
2024/01/11 04:42:26;;;;;;;4.85;2.78;;;;;;;;;;4997598;28;20038;-31
2024/01/11 04:44:53;;;;;;;2.95;2.67;;;;;;;;;;4979960;28;20054;-31
2024/01/11 04:47:19;;;;;;;5.28;2.95;;;;;;;;;;4996938;28;20045;-30
2024/01/11 04:49:45;;;;;;;3.17;2.85;;;;;;;;;;4997184;28;20057;-29
2024/01/11 04:52:11;;;;;;;2.97;2.67;;;;;;;;;;4979687;28;20022;-30
2024/01/11 04:54:37;;;;;;;3.00;2.50;;;;;;;;;;4996905;28;20038;-31
2024/01/11 04:57:05;;;;;;;2.92;2.50;;;;;;;;;;4979632;28;20022;-29
2024/01/11 04:59:31;;;;;;;4.53;2.42;;;;;;;;;;4996743;28;20041;-31
2024/01/11 05:01:57;;;;;;;3.00;2.70;;;;;;;;;;4996897;28;20109;-32
2024/01/11 05:04:23;;;;;;;2.95;2.63;;;;;;;;;;4996533;28;20354;-30
2024/01/11 05:06:51;;;;;;;3.03;2.50;;;;;;;;;;4996958;28;20047;-28
2024/01/11 05:09:17;;;;;;;3.63;2.95;;;;;;;;;;4996817;28;20030;-30
2024/01/11 05:11:44;;;;;;;3.53;2.92;;;;;;;;;;4996539;28;20027;-31
2024/01/11 05:14:10;;;;;;;2.75;2.55;;;;;;;;;;4996235;28;20098;-30
2024/01/11 05:16:36;;;;;;;3.13;2.83;;;;;;;;;;4979955;28;20061;-30
2024/01/11 05:19:02;;;;;;;4.28;3.40;;;;;;;;;;4996282;28;20022;-32
2024/01/11 05:21:28;;;;;;;4.25;3.22;;;;;;;;;;4996279;28;20037;-30
2024/01/11 05:23:54;;;;;;;6.60;2.90;;;;;;;;;;4996400;28;20026;-30
2024/01/11 05:26:21;;;;;;;4.60;3.47;;;;;;;;;;4996344;28;20050;-31
2024/01/11 05:28:47;;;;;;;7.90;3.65;;;;;;;;;;4996602;28;20030;-31
2024/01/11 05:31:17;;;;;;;9.00;3.40;;;;;;;;;;4996042;28;20046;-31
2024/01/11 05:33:43;;;;;;;23.88;5.30;;;;;;;;;;4996032;28;20023;-31
2024/01/11 05:36:09;;;;;;;13.18;3.63;;;;;;;;;;4995872;28;20054;-29
2024/01/11 05:38:36;;;;;;;6.45;3.20;;;;;;;;;;4978483;28;20030;-31
2024/01/11 05:41:02;;;;;;;5.05;3.65;;;;;;;;;;4996399;28;20053;-29
2024/01/11 05:43:28;;;;;;;13.68;5.00;;;;;;;;;;4995615;28;20046;-31
2024/01/11 05:45:54;;;;;;;6.95;3.88;;;;;;;;;;4995830;28;20026;-30
2024/01/11 05:48:20;;;;;;;6.18;3.58;;;;;;;;;;4996011;28;20022;-30
2024/01/11 05:50:47;;;;;;;9.23;3.63;;;;;;;;;;4995973;28;20030;-27
2024/01/11 05:53:13;;;;;;;6.88;3.88;;;;;;;;;;4978404;28;20105;-30
2024/01/11 05:55:42;;;;;;;9.25;3.42;;;;;;;;;;4995536;28;20030;-29
2024/01/11 05:58:08;;;;;;;8.57;3.42;;;;;;;;;;4995606;28;20045;-31
2024/01/11 06:03:18;;;;;;;8.02;3.83;;;;;;;;;;5334337;22;20056;-30
2024/01/11 06:05:44;;;;;;;10.90;3.75;;;;;;;;;;5015330;28;20348;-30
2024/01/11 06:08:10;;;;;;;5.70;3.63;;;;;;;;;;5015136;28;20029;-31
2024/01/11 06:10:37;;;;;;;6.28;3.47;;;;;;;;;;5015331;28;20022;-29
2024/01/11 06:13:03;;;;;;;6.30;2.92;;;;;;;;;;5014946;28;20030;-31
2024/01/11 06:15:29;;;;;;;8.18;3.20;;;;;;;;;;5015062;28;20034;-29
2024/01/11 06:17:55;;;;;;;4.20;3.10;;;;;;;;;;5015286;28;20106;-31
2024/01/11 06:20:21;;;;;;;9.07;3.17;;;;;;;;;;5015301;28;20322;-28
2024/01/11 06:22:48;;;;;;;4.95;2.78;;;;;;;;;;5014925;28;20034;-31
2024/01/11 06:25:14;;;;;;;4.55;3.17;;;;;;;;;;5015013;28;20045;-28
2024/01/11 06:27:43;;;;;;;8.02;2.50;;;;;;;;;;5014692;28;20029;-30
2024/01/11 06:30:09;;;;;;;4.28;3.80;;;;;;;;;;5014675;28;20055;-31
2024/01/11 06:32:35;;;;;;;3.05;2.83;;;;;;;;;;5014711;28;20030;-27
2024/01/11 06:35:02;;;;;;;5.68;2.83;;;;;;;;;;4997946;28;20022;-28
2024/01/11 06:37:29;;;;;;;9.63;3.15;;;;;;;;;;5014864;28;20018;-27
2024/01/11 06:39:55;;;;;;;11.98;2.58;;;;;;;;;;5014661;28;20033;-29
2024/01/11 06:42:21;;;;;;;11.23;3.42;;;;;;;;;;5014581;28;20034;-29
2024/01/11 06:44:47;;;;;;;4.20;2.83;;;;;;;;;;5014553;28;20058;-30
2024/01/11 06:47:14;;;;;;;4.15;2.95;;;;;;;;;;5014695;28;20025;-31
2024/01/11 06:49:40;;;;;;;5.30;3.63;;;;;;;;;;5014560;28;20034;-31
2024/01/11 06:52:06;;;;;;;5.45;3.75;;;;;;;;;;5000629;28;20096;-31
2024/01/11 06:54:32;;;;;;;6.40;3.45;;;;;;;;;;5018586;28;20033;-27
2024/01/11 06:56:59;;;;;;;5.40;3.60;;;;;;;;;;5018521;28;20030;-33
2024/01/11 06:59:25;;;;;;;3.15;2.85;;;;;;;;;;5018470;28;20025;-29
2024/01/11 07:01:51;;;;;;;4.70;3.45;;;;;;;;;;5018653;28;20385;-32
2024/01/11 07:04:17;;;;;;;6.60;3.67;;;;;;;;;;5018174;28;20147;-30
2024/01/11 07:06:43;;;;;;;4.03;3.17;;;;;;;;;;5018443;28;20041;-32
2024/01/11 07:09:10;;;;;;;9.43;3.20;;;;;;;;;;5018546;28;20025;-30
2024/01/11 07:11:37;;;;;;;6.85;3.20;;;;;;;;;;5018520;28;20056;-29
2024/01/11 07:14:04;;;;;;;18.67;5.38;;;;;;;;;;5018745;28;20488;-30
2024/01/11 07:16:30;;;;;;;8.43;4.10;;;;;;;;;;5018506;28;20052;-31
2024/01/11 07:18:57;;;;;;;7.03;4.00;;;;;;;;;;5001071;28;20030;-31
2024/01/11 07:21:29;;;;;;;10.68;4.13;;;;;;;;;;5018166;28;20025;-31
2024/01/11 07:23:56;;;;;;;9.77;4.43;;;;;;;;;;5017965;28;20030;-28
2024/01/11 07:26:23;;;;;;;4.93;3.55;;;;;;;;;;5018019;28;20026;-31
2024/01/11 07:28:49;;;;;;;9.85;5.20;;;;;;;;;;5018136;28;20433;-33
2024/01/11 07:31:16;;;;;;;4.13;3.72;;;;;;;;;;5017880;28;20504;-31
2024/01/11 07:33:42;;;;;;;6.03;5.07;;;;;;;;;;5017701;28;20025;-31
2024/01/11 07:36:09;;;;;;;4.45;3.80;;;;;;;;;;5018061;28;20044;-31
2024/01/11 07:38:35;;;;;;;4.95;3.13;;;;;;;;;;5017724;28;20034;-30
2024/01/11 07:41:01;;;;;;;4.28;3.20;;;;;;;;;;5018025;28;20072;-30
2024/01/11 07:43:28;;;;;;;5.28;3.75;;;;;;;;;;5017942;28;20079;-31
2024/01/11 07:45:58;;;;;;;5.35;3.00;;;;;;;;;;5017627;28;20022;-30
2024/01/11 07:48:24;;;;;;;6.20;4.07;;;;;;;;;;5017869;28;20057;-29
2024/01/11 07:50:50;;;;;;;5.30;3.35;;;;;;;;;;5017522;28;20448;-29
2024/01/11 07:53:16;;;;;;;7.30;3.60;;;;;;;;;;5017418;28;20116;-28
2024/01/11 07:55:43;;;;;;;4.65;3.53;;;;;;;;;;5017798;28;20380;-30
2024/01/11 07:58:11;;;;;;;6.20;3.58;;;;;;;;;;5000165;28;20030;-28
2024/01/11 08:00:38;;;;;;;4.20;3.15;;;;;;;;;;5017657;28;20038;-30
2024/01/11 08:03:04;;;;;;;10.38;4.25;;;;;;;;;;5016983;28;20045;-31
2024/01/11 08:05:30;;;;;;;7.30;3.63;;;;;;;;;;5017222;28;20029;-29
2024/01/11 08:07:56;;;;;;;11.63;3.53;;;;;;;;;;5017584;28;20258;-30
2024/01/11 08:10:22;;;;;;;8.10;3.90;;;;;;;;;;5017276;28;20026;-29
2024/01/11 08:12:49;;;;;;;6.43;3.38;;;;;;;;;;5017273;28;20102;-31
2024/01/11 08:15:15;;;;;;;9.05;3.83;;;;;;;;;;5017100;28;20037;-30
2024/01/11 08:17:45;;;;;;;8.73;4.07;;;;;;;;;;5017106;28;20026;-30
2024/01/11 08:20:12;;;;;;;10.05;4.90;;;;;;;;;;4999737;28;20018;-29
2024/01/11 08:22:43;;;;;;;5.53;3.70;;;;;;;;;;5017133;28;20069;-31
2024/01/11 08:25:09;;;;;;;5.80;3.42;;;;;;;;;;5017638;28;20101;-31
2024/01/11 08:27:35;;;;;;;8.55;3.97;;;;;;;;;;5017003;28;20037;-31
2024/01/11 08:30:02;;;;;;;5.93;3.63;;;;;;;;;;5016954;28;20388;-36
2024/01/11 08:32:28;;;;;;;7.88;4.03;;;;;;;;;;5016644;28;20045;-30
2024/01/11 08:34:55;;;;;;;5.60;3.53;;;;;;;;;;5016497;28;20437;-29
2024/01/11 08:37:21;;;;;;;8.10;3.22;;;;;;;;;;5016892;28;20029;-30
2024/01/11 08:39:47;;;;;;;11.25;3.53;;;;;;;;;;4999241;28;20052;-29
2024/01/11 08:42:15;;;;;;;8.32;4.20;;;;;;;;;;5016436;28;20033;-30
2024/01/11 08:44:42;;;;;;;6.63;4.00;;;;;;;;;;5016370;28;20057;-29
2024/01/11 08:47:09;;;;;;;5.43;3.42;;;;;;;;;;5016466;28;20085;-28
2024/01/11 08:49:39;;;;;;;10.70;3.92;;;;;;;;;;5016450;28;20022;-30
2024/01/11 08:52:06;;;;;;;12.52;3.63;;;;;;;;;;5016535;28;20414;-28
2024/01/11 08:54:35;;;;;;;13.45;4.25;;;;;;;;;;5016375;28;20416;-30
2024/01/11 08:57:01;;;;;;;9.45;4.00;;;;;;;;;;5016255;28;20026;-29
2024/01/11 08:59:27;;;;;;;14.00;4.53;;;;;;;;;;5016668;28;20060;-28
2024/01/11 09:01:53;;;;;;;16.58;3.60;;;;;;;;;;5016431;28;20029;-30
2024/01/11 09:04:20;;;;;;;7.30;4.50;;;;;;;;;;4998815;28;20135;-27
2024/01/11 09:06:46;;;;;;;7.35;4.00;;;;;;;;;;5016297;28;20404;-28
2024/01/11 09:09:13;;;;;;;8.65;4.25;;;;;;;;;;5016218;28;20026;-30
2024/01/11 09:11:42;;;;;;;7.15;3.55;;;;;;;;;;5015902;28;20033;-31
2024/01/11 09:14:11;;;;;;;5.50;4.13;;;;;;;;;;5015383;28;20026;-29
2024/01/11 09:16:37;;;;;;;7.72;3.17;;;;;;;;;;5016129;28;20499;-29
2024/01/11 09:19:03;;;;;;;7.82;3.53;;;;;;;;;;5015932;28;20077;-29
2024/01/11 09:21:29;;;;;;;4.70;3.47;;;;;;;;;;5016095;28;20034;-30
2024/01/11 09:23:56;;;;;;;7.95;3.38;;;;;;;;;;4998478;28;20033;-28
2024/01/11 09:26:22;;;;;;;10.82;3.83;;;;;;;;;;5016162;28;20357;-27
2024/01/11 09:28:48;;;;;;;9.20;2.92;;;;;;;;;;5015640;28;20025;-31
2024/01/11 09:31:15;;;;;;;14.00;3.90;;;;;;;;;;5015585;28;20029;-27
2024/01/11 09:33:45;;;;;;;8.10;3.63;;;;;;;;;;4998200;28;20033;-28
2024/01/11 09:36:11;;;;;;;15.35;4.95;;;;;;;;;;4998134;28;20026;-29
2024/01/11 09:38:37;;;;;;;37.25;5.82;;;;;;;;;;4998872;28;20420;-29
2024/01/11 09:41:13;;;;;;;19.98;4.63;;;;;;;;;;5015482;28;20026;-30
2024/01/11 09:43:41;;;;;;;20.92;6.20;;;;;;;;;;5015199;28;20026;-28
2024/01/11 09:46:08;;;;;;;13.38;4.50;;;;;;;;;;5015121;28;20026;-29
2024/01/11 09:48:35;;;;;;;25.25;4.75;;;;;;;;;;5015523;28;20029;-30
2024/01/11 09:51:05;;;;;;;20.77;4.50;;;;;;;;;;5015517;28;20095;-32
2024/01/11 09:53:33;;;;;;;29.73;5.65;;;;;;;;;;5015211;28;20021;-29
2024/01/11 09:55:59;;;;;;;20.90;4.80;;;;;;;;;;4997764;28;20054;-29
2024/01/11 09:58:26;;;;;;;10.35;4.18;;;;;;;;;;5015043;28;20025;-28
2024/01/11 10:00:55;;;;;;;15.70;3.78;;;;;;;;;;5015270;28;20128;-29
2024/01/11 10:03:24;;;;;;;14.23;5.18;;;;;;;;;;4994125;28;20108;-28
2024/01/11 10:05:51;;;;;;;16.02;4.18;;;;;;;;;;4995236;28;20029;-28
2024/01/11 10:08:19;;;;;;;20.42;4.20;;;;;;;;;;4995709;28;20334;-33
2024/01/11 10:10:46;;;;;;;21.10;5.78;;;;;;;;;;4995502;28;20022;-30
2024/01/11 10:13:12;;;;;;;10.60;5.47;;;;;;;;;;4995008;28;20088;-29
2024/01/11 10:15:38;;;;;;;9.75;4.72;;;;;;;;;;4995072;28;20022;-31
2024/01/11 10:18:04;;;;;;;14.73;4.47;;;;;;;;;;4995622;28;20101;-26
2024/01/11 10:20:32;;;;;;;10.63;5.63;;;;;;;;;;4995410;28;20022;-28
2024/01/11 10:22:59;;;;;;;10.27;4.55;;;;;;;;;;4994964;28;20050;-28
2024/01/11 10:25:26;;;;;;;10.75;5.10;;;;;;;;;;4994372;28;20428;-30
2024/01/11 10:27:53;;;;;;;16.98;4.80;;;;;;;;;;4995216;28;20516;-32
2024/01/11 10:30:20;;;;;;;12.85;4.10;;;;;;;;;;4995610;28;20034;-28
2024/01/11 10:32:47;;;;;;;8.18;4.22;;;;;;;;;;4994953;28;20045;-31
2024/01/11 10:35:13;;;;;;;16.25;4.95;;;;;;;;;;4995166;28;20026;-27
2024/01/11 10:37:40;;;;;;;20.13;4.60;;;;;;;;;;4993991;28;20034;-27
2024/01/11 10:40:11;;;;;;;15.25;4.57;;;;;;;;;;4977805;28;20158;-31
2024/01/11 10:42:40;;;;;;;;;;;;;;;;;;4995351;28;20033;-28
2024/01/11 10:45:09;;;;;;;9.10;4.45;;;;;;;;;;4994760;28;20000;-32
2024/01/11 10:47:36;;;;;;;23.05;4.72;;;;;;;;;;4994559;28;20023;-29
2024/01/11 10:50:04;;;;;;;13.70;4.25;;;;;;;;;;4995081;28;20065;-30
2024/01/11 10:52:36;;;;;;;13.02;4.50;;;;;;;;;;4994654;28;20014;-28
2024/01/11 10:55:03;;;;;;;12.13;4.10;;;;;;;;;;4995005;28;20097;-32
2024/01/11 10:57:30;;;;;;;10.70;3.63;;;;;;;;;;4994846;28;20026;-30
2024/01/11 10:59:57;;;;;;;15.32;4.68;;;;;;;;;;4994888;28;20114;-32
2024/01/11 11:02:23;;;;;;;8.93;3.13;;;;;;;;;;4996347;28;20033;-29
2024/01/11 11:04:52;;;;;;;7.25;3.63;;;;;;;;;;5014722;28;20030;-31
2024/01/11 11:07:19;;;;;;;10.48;4.18;;;;;;;;;;5014607;28;20030;-33
2024/01/11 11:09:45;;;;;;;7.05;4.70;;;;;;;;;;4997266;28;20109;-32
2024/01/11 11:12:11;;;;;;;10.68;3.53;;;;;;;;;;4997293;28;20030;-29
2024/01/11 11:14:39;;;;;;;6.85;3.90;;;;;;;;;;5014233;28;20064;-30
2024/01/11 11:17:06;;;;;;;9.77;3.60;;;;;;;;;;5014154;28;20029;-31
2024/01/11 11:19:32;;;;;;;7.82;3.80;;;;;;;;;;5014176;28;20037;-32
2024/01/11 11:21:58;;;;;;;12.32;5.40;;;;;;;;;;5013967;28;20036;-28
2024/01/11 11:24:24;;;;;;;27.77;7.20;;;;;;;;;;5014290;28;20030;-30
2024/01/11 11:26:50;;;;;;;16.30;4.57;;;;;;;;;;5014276;28;20121;-29
2024/01/11 11:29:17;;;;;;;13.90;4.95;;;;;;;;;;5014226;28;20174;-28
2024/01/11 11:31:53;;;;;;;12.27;4.15;;;;;;;;;;5013850;28;20044;-29
2024/01/11 11:34:20;;;;;;;13.43;4.65;;;;;;;;;;5013819;28;20056;-30
2024/01/11 11:36:54;;;;;;;12.88;4.80;;;;;;;;;;5015637;28;20037;-30
2024/01/11 11:39:21;;;;;;;7.13;3.65;;;;;;;;;;5000830;28;20030;-29
2024/01/11 11:41:49;;;;;;;7.40;3.55;;;;;;;;;;5000166;28;20057;-31
2024/01/11 11:44:16;;;;;;;9.73;4.13;;;;;;;;;;5017761;28;20030;-27
2024/01/11 11:46:45;;;;;;;7.50;3.88;;;;;;;;;;5000076;28;20096;-29
2024/01/11 11:49:13;;;;;;;9.10;4.45;;;;;;;;;;5017707;28;20101;-30
2024/01/11 11:51:41;;;;;;;9.90;3.58;;;;;;;;;;5017216;28;20083;-31
2024/01/11 11:54:09;;;;;;;10.32;3.78;;;;;;;;;;5017560;28;20034;-28
2024/01/11 11:56:36;;;;;;;7.10;3.97;;;;;;;;;;5017201;28;20041;-32
2024/01/11 11:59:03;;;;;;;11.30;3.33;;;;;;;;;;5017084;28;20022;-28
2024/01/11 12:01:29;;;;;;;10.75;4.38;;;;;;;;;;5017091;28;20025;-28
2024/01/11 12:03:55;;;;;;;8.55;4.25;;;;;;;;;;5016681;28;20366;-31
2024/01/11 12:06:27;;;;;;;22.52;4.97;;;;;;;;;;5016927;28;20365;-29
2024/01/11 12:08:54;;;;;;;21.20;4.50;;;;;;;;;;5017669;28;20104;-32
2024/01/11 12:11:21;;;;;;;22.17;4.93;;;;;;;;;;4999607;28;20022;-29
2024/01/11 12:13:52;;;;;;;19.52;4.80;;;;;;;;;;5016708;28;20096;-28
2024/01/11 12:16:18;;;;;;;;;;;;;;;;;;4999898;28;20026;-31
2024/01/11 12:18:44;;;;;;;16.70;5.13;;;;;;;;;;5016610;28;19932;-31
2024/01/11 12:21:10;;;;;;;6.22;3.70;;;;;;;;;;4999315;28;20025;-28
2024/01/11 12:23:38;;;;;;;8.80;4.43;;;;;;;;;;4999331;28;20032;-29
2024/01/11 12:26:11;;;;;;;17.58;4.10;;;;;;;;;;5017313;28;20441;-31
2024/01/11 12:28:38;;;;;;;16.08;5.10;;;;;;;;;;5016700;28;20044;-31
2024/01/11 12:31:04;;;;;;;17.45;4.63;;;;;;;;;;5016661;28;20018;-29
2024/01/11 12:33:30;;;;;;;12.32;4.00;;;;;;;;;;5016753;28;20018;-31
2024/01/11 12:35:57;;;;;;;10.02;3.28;;;;;;;;;;4999186;28;20037;-28
2024/01/11 12:38:23;;;;;;;13.82;3.63;;;;;;;;;;5016439;28;20030;-30
2024/01/11 12:40:50;;;;;;;11.15;3.95;;;;;;;;;;4999240;28;20030;-29
2024/01/11 12:43:24;;;;;;;13.52;4.32;;;;;;;;;;5016639;28;20033;-28
2024/01/11 12:45:50;;;;;;;14.30;3.72;;;;;;;;;;5016814;28;20108;-30
2024/01/11 12:48:18;;;;;;;9.73;3.85;;;;;;;;;;5015742;28;20018;-34
2024/01/11 12:50:44;;;;;;;10.30;4.00;;;;;;;;;;5016471;28;20046;-30
2024/01/11 12:53:17;;;;;;;6.70;3.45;;;;;;;;;;5016321;28;20087;-31
2024/01/11 12:55:44;;;;;;;6.35;3.80;;;;;;;;;;5016374;28;20068;-29
2024/01/11 12:58:10;;;;;;;8.93;4.93;;;;;;;;;;4999001;28;20034;-29
2024/01/11 13:00:36;;;;;;;9.15;3.67;;;;;;;;;;5016240;28;20519;-30
2024/01/11 13:03:03;;;;;;;10.73;3.42;;;;;;;;;;5016005;28;20054;-33
2024/01/11 13:05:34;;;;;;;8.45;3.55;;;;;;;;;;5016338;28;20018;-27
2024/01/11 13:08:01;;;;;;;;;;;;;;;;;;5016390;28;20028;-30
2024/01/11 13:10:28;;;;;;;23.17;4.25;;;;;;;;;;5015993;28;19909;-26
2024/01/11 13:12:55;;;;;;;13.18;4.47;;;;;;;;;;5016531;28;20053;-31
2024/01/11 13:15:22;;;;;;;9.15;3.80;;;;;;;;;;5016312;28;20025;-32
2024/01/11 13:17:48;;;;;;;11.70;4.28;;;;;;;;;;5016200;28;20041;-31
2024/01/11 13:20:15;;;;;;;10.77;4.10;;;;;;;;;;5015979;28;20030;-29
2024/01/11 13:22:41;;;;;;;12.85;3.83;;;;;;;;;;5016110;28;20045;-31
2024/01/11 13:25:09;;;;;;;4.35;3.60;;;;;;;;;;4998777;28;20038;-27
2024/01/11 13:27:35;;;;;;;8.82;4.78;;;;;;;;;;5015796;28;20072;-27
2024/01/11 13:30:01;;;;;;;9.32;4.18;;;;;;;;;;5015878;28;20463;-31
2024/01/11 13:32:27;;;;;;;6.78;4.30;;;;;;;;;;5015889;28;20117;-29
2024/01/11 13:34:53;;;;;;;9.88;4.15;;;;;;;;;;5015686;28;20084;-32
2024/01/11 13:37:20;;;;;;;9.02;3.65;;;;;;;;;;5015649;28;20129;-28
2024/01/11 13:39:48;;;;;;;12.73;4.43;;;;;;;;;;5015664;28;20057;-31
2024/01/11 13:42:14;;;;;;;15.80;4.45;;;;;;;;;;5015625;28;20033;-32
2024/01/11 13:44:41;;;;;;;12.10;4.32;;;;;;;;;;5015771;28;20029;-29
2024/01/11 13:47:08;;;;;;;16.73;4.43;;;;;;;;;;5015530;28;20030;-32
2024/01/11 13:49:34;;;;;;;11.98;4.55;;;;;;;;;;4998567;28;20097;-28
2024/01/11 13:52:00;;;;;;;8.95;3.88;;;;;;;;;;5015201;28;20136;-28
2024/01/11 13:54:27;;;;;;;7.22;3.72;;;;;;;;;;5015256;28;20030;-31
2024/01/11 13:56:53;;;;;;;15.63;4.22;;;;;;;;;;5015212;28;20026;-30
2024/01/11 13:59:19;;;;;;;11.05;4.30;;;;;;;;;;5014902;28;20029;-31
2024/01/11 14:01:45;;;;;;;12.50;4.75;;;;;;;;;;5015518;28;20100;-32
2024/01/11 14:04:12;;;;;;;9.68;4.40;;;;;;;;;;5014869;28;20053;-28
2024/01/11 14:06:38;;;;;;;6.57;3.63;;;;;;;;;;5015420;28;20026;-30
2024/01/11 14:09:07;;;;;;;7.28;3.20;;;;;;;;;;5014941;28;20171;-31
2024/01/11 14:11:34;;;;;;;11.57;4.93;;;;;;;;;;5015238;28;20104;-32
2024/01/11 14:14:03;;;;;;;9.73;4.40;;;;;;;;;;5014907;28;20022;-28
2024/01/11 14:16:30;;;;;;;8.52;3.50;;;;;;;;;;5014931;28;20097;-29
2024/01/11 14:18:56;;;;;;;10.27;3.45;;;;;;;;;;5014722;28;20030;-30
2024/01/11 14:21:22;;;;;;;8.13;3.53;;;;;;;;;;5015027;28;20025;-30
2024/01/11 14:23:48;;;;;;;10.98;5.18;;;;;;;;;;4997435;28;20053;-28
2024/01/11 14:26:14;;;;;;;5.30;2.90;;;;;;;;;;5015224;28;20086;-27
2024/01/11 14:28:42;;;;;;;8.07;3.63;;;;;;;;;;5014748;28;20045;-28
2024/01/11 14:31:08;;;;;;;4.97;3.10;;;;;;;;;;5014629;28;20032;-31
2024/01/11 14:33:36;;;;;;;9.43;3.40;;;;;;;;;;5014544;28;20022;-29
2024/01/11 14:36:02;;;;;;;7.50;3.35;;;;;;;;;;5014688;28;20487;-32
2024/01/11 14:38:28;;;;;;;8.10;3.72;;;;;;;;;;5014764;28;20029;-31
2024/01/11 14:40:54;;;;;;;10.77;3.85;;;;;;;;;;4997615;28;20087;-29